Aviation Digital Data Service (ADDS)

Output produced by METARs form (1044 UTC 24 July 2016)
found at http://aviationweather.gov/adds/metars/
 
KBTV 240713Z 2407/2506 00000KT P6SM SCT015 BKN050 
     TEMPO 2407/2411 4SM BR BKN015 
     FM241400 32006KT P6SM SKC